sensor_id;sensor_type;location;lat;lon;timestamp;P1;durP1;ratioP1;P2;durP2;ratioP2
52730;SDS011;38624;53.242;6.974;2024-02-21T00:01:56;16.80;;;4.67;;
52730;SDS011;38624;53.242;6.974;2024-02-21T00:04:22;14.77;;;4.38;;
52730;SDS011;38624;53.242;6.974;2024-02-21T00:06:48;16.47;;;4.53;;
52730;SDS011;38624;53.242;6.974;2024-02-21T00:09:14;16.30;;;4.50;;
52730;SDS011;38624;53.242;6.974;2024-02-21T00:11:43;14.23;;;4.67;;
52730;SDS011;38624;53.242;6.974;2024-02-21T00:14:09;11.95;;;4.45;;
52730;SDS011;38624;53.242;6.974;2024-02-21T00:16:38;15.48;;;4.13;;
52730;SDS011;38624;53.242;6.974;2024-02-21T00:19:04;15.13;;;4.63;;
52730;SDS011;38624;53.242;6.974;2024-02-21T00:21:30;13.77;;;4.27;;
52730;SDS011;38624;53.242;6.974;2024-02-21T00:23:56;11.75;;;4.22;;
52730;SDS011;38624;53.242;6.974;2024-02-21T00:26:22;19.03;;;4.20;;
52730;SDS011;38624;53.242;6.974;2024-02-21T00:28:56;12.17;;;4.07;;
52730;SDS011;38624;53.242;6.974;2024-02-21T00:31:22;15.07;;;5.22;;
52730;SDS011;38624;53.242;6.974;2024-02-21T00:33:51;13.57;;;4.43;;
52730;SDS011;38624;53.242;6.974;2024-02-21T00:36:19;13.77;;;4.70;;
52730;SDS011;38624;53.242;6.974;2024-02-21T00:38:47;15.38;;;4.75;;
52730;SDS011;38624;53.242;6.974;2024-02-21T00:41:14;14.97;;;4.40;;
52730;SDS011;38624;53.242;6.974;2024-02-21T00:43:40;18.13;;;4.90;;
52730;SDS011;38624;53.242;6.974;2024-02-21T00:48:33;13.27;;;4.53;;
52730;SDS011;38624;53.242;6.974;2024-02-21T00:50:59;15.07;;;4.20;;
52730;SDS011;38624;53.242;6.974;2024-02-21T00:53:25;19.80;;;4.90;;
52730;SDS011;38624;53.242;6.974;2024-02-21T00:55:51;21.73;;;4.68;;
52730;SDS011;38624;53.242;6.974;2024-02-21T00:58:17;21.17;;;4.27;;
52730;SDS011;38624;53.242;6.974;2024-02-21T01:00:46;16.95;;;5.13;;
52730;SDS011;38624;53.242;6.974;2024-02-21T01:03:12;20.27;;;5.45;;
52730;SDS011;38624;53.242;6.974;2024-02-21T01:05:38;17.60;;;5.00;;
52730;SDS011;38624;53.242;6.974;2024-02-21T01:08:04;19.20;;;4.47;;
52730;SDS011;38624;53.242;6.974;2024-02-21T01:10:30;17.60;;;4.40;;
52730;SDS011;38624;53.242;6.974;2024-02-21T01:12:57;19.13;;;4.40;;
52730;SDS011;38624;53.242;6.974;2024-02-21T01:15:23;15.15;;;4.57;;
52730;SDS011;38624;53.242;6.974;2024-02-21T01:17:50;19.17;;;4.43;;
52730;SDS011;38624;53.242;6.974;2024-02-21T01:20:20;18.90;;;4.40;;
52730;SDS011;38624;53.242;6.974;2024-02-21T01:22:48;18.60;;;5.20;;
52730;SDS011;38624;53.242;6.974;2024-02-21T01:25:14;17.80;;;4.73;;
52730;SDS011;38624;53.242;6.974;2024-02-21T01:27:41;16.75;;;4.35;;
52730;SDS011;38624;53.242;6.974;2024-02-21T01:30:07;17.57;;;4.63;;
52730;SDS011;38624;53.242;6.974;2024-02-21T01:32:33;22.23;;;5.05;;
52730;SDS011;38624;53.242;6.974;2024-02-21T01:34:59;15.98;;;4.68;;
52730;SDS011;38624;53.242;6.974;2024-02-21T01:37:26;22.75;;;5.65;;
52730;SDS011;38624;53.242;6.974;2024-02-21T01:39:52;18.80;;;5.00;;
52730;SDS011;38624;53.242;6.974;2024-02-21T01:42:18;17.45;;;5.72;;
52730;SDS011;38624;53.242;6.974;2024-02-21T01:44:44;20.67;;;5.63;;
52730;SDS011;38624;53.242;6.974;2024-02-21T01:47:11;16.27;;;5.40;;
52730;SDS011;38624;53.242;6.974;2024-02-21T01:49:40;18.10;;;5.97;;
52730;SDS011;38624;53.242;6.974;2024-02-21T01:52:07;20.55;;;5.53;;
52730;SDS011;38624;53.242;6.974;2024-02-21T01:54:36;24.17;;;6.88;;
52730;SDS011;38624;53.242;6.974;2024-02-21T01:57:02;21.17;;;6.13;;
52730;SDS011;38624;53.242;6.974;2024-02-21T01:59:28;24.55;;;7.63;;
52730;SDS011;38624;53.242;6.974;2024-02-21T02:01:55;18.88;;;7.22;;
52730;SDS011;38624;53.242;6.974;2024-02-21T02:04:22;17.23;;;6.88;;
52730;SDS011;38624;53.242;6.974;2024-02-21T02:06:48;19.02;;;7.60;;
52730;SDS011;38624;53.242;6.974;2024-02-21T02:09:14;27.43;;;7.73;;
52730;SDS011;38624;53.242;6.974;2024-02-21T02:11:44;30.83;;;8.77;;
52730;SDS011;38624;53.242;6.974;2024-02-21T02:14:10;23.98;;;8.40;;
52730;SDS011;38624;53.242;6.974;2024-02-21T02:16:36;12.35;;;7.10;;
52730;SDS011;38624;53.242;6.974;2024-02-21T02:19:02;23.40;;;7.50;;
52730;SDS011;38624;53.242;6.974;2024-02-21T02:21:29;18.17;;;6.80;;
52730;SDS011;38624;53.242;6.974;2024-02-21T02:23:56;18.50;;;6.10;;
52730;SDS011;38624;53.242;6.974;2024-02-21T02:26:25;18.52;;;7.43;;
52730;SDS011;38624;53.242;6.974;2024-02-21T02:28:52;21.45;;;6.68;;
52730;SDS011;38624;53.242;6.974;2024-02-21T02:31:18;14.27;;;6.03;;
52730;SDS011;38624;53.242;6.974;2024-02-21T02:33:44;17.33;;;6.70;;
52730;SDS011;38624;53.242;6.974;2024-02-21T02:36:13;16.67;;;6.30;;
52730;SDS011;38624;53.242;6.974;2024-02-21T02:38:39;17.95;;;6.75;;
52730;SDS011;38624;53.242;6.974;2024-02-21T02:41:05;20.53;;;6.27;;
52730;SDS011;38624;53.242;6.974;2024-02-21T02:43:31;21.63;;;7.72;;
52730;SDS011;38624;53.242;6.974;2024-02-21T02:45:57;20.90;;;7.50;;
52730;SDS011;38624;53.242;6.974;2024-02-21T02:48:23;22.30;;;7.37;;
52730;SDS011;38624;53.242;6.974;2024-02-21T02:50:50;16.43;;;7.70;;
52730;SDS011;38624;53.242;6.974;2024-02-21T02:53:16;15.07;;;7.80;;
52730;SDS011;38624;53.242;6.974;2024-02-21T02:55:42;18.67;;;7.68;;
52730;SDS011;38624;53.242;6.974;2024-02-21T02:58:08;18.55;;;8.77;;
52730;SDS011;38624;53.242;6.974;2024-02-21T03:00:34;17.50;;;7.20;;
52730;SDS011;38624;53.242;6.974;2024-02-21T03:03:01;20.65;;;7.40;;
52730;SDS011;38624;53.242;6.974;2024-02-21T03:05:30;15.90;;;7.47;;
52730;SDS011;38624;53.242;6.974;2024-02-21T03:07:57;29.13;;;8.30;;
52730;SDS011;38624;53.242;6.974;2024-02-21T03:10:28;17.17;;;6.85;;
52730;SDS011;38624;53.242;6.974;2024-02-21T03:12:54;25.20;;;8.13;;
52730;SDS011;38624;53.242;6.974;2024-02-21T03:15:20;19.20;;;7.43;;
52730;SDS011;38624;53.242;6.974;2024-02-21T03:17:46;17.80;;;6.78;;
52730;SDS011;38624;53.242;6.974;2024-02-21T03:20:12;20.77;;;6.53;;
52730;SDS011;38624;53.242;6.974;2024-02-21T03:22:39;18.38;;;7.07;;
52730;SDS011;38624;53.242;6.974;2024-02-21T03:25:05;21.75;;;7.57;;
52730;SDS011;38624;53.242;6.974;2024-02-21T03:27:32;20.13;;;7.32;;
52730;SDS011;38624;53.242;6.974;2024-02-21T03:30:01;18.03;;;7.10;;
52730;SDS011;38624;53.242;6.974;2024-02-21T03:32:27;25.80;;;7.68;;
52730;SDS011;38624;53.242;6.974;2024-02-21T03:34:54;25.08;;;8.65;;
52730;SDS011;38624;53.242;6.974;2024-02-21T03:37:20;27.20;;;8.13;;
52730;SDS011;38624;53.242;6.974;2024-02-21T03:39:46;22.20;;;7.50;;
52730;SDS011;38624;53.242;6.974;2024-02-21T03:42:12;25.77;;;8.05;;
52730;SDS011;38624;53.242;6.974;2024-02-21T03:44:38;29.57;;;9.23;;
52730;SDS011;38624;53.242;6.974;2024-02-21T03:47:04;35.97;;;9.27;;
52730;SDS011;38624;53.242;6.974;2024-02-21T03:49:31;26.25;;;9.07;;
52730;SDS011;38624;53.242;6.974;2024-02-21T03:51:57;28.30;;;8.70;;
52730;SDS011;38624;53.242;6.974;2024-02-21T03:54:23;23.83;;;8.98;;
52730;SDS011;38624;53.242;6.974;2024-02-21T03:56:49;37.23;;;10.53;;
52730;SDS011;38624;53.242;6.974;2024-02-21T03:59:16;29.80;;;10.20;;
52730;SDS011;38624;53.242;6.974;2024-02-21T04:01:42;31.92;;;8.52;;
52730;SDS011;38624;53.242;6.974;2024-02-21T04:04:09;26.50;;;9.70;;
52730;SDS011;38624;53.242;6.974;2024-02-21T04:06:35;23.25;;;8.57;;
52730;SDS011;38624;53.242;6.974;2024-02-21T04:09:01;24.50;;;8.57;;
52730;SDS011;38624;53.242;6.974;2024-02-21T04:11:28;33.97;;;9.60;;
52730;SDS011;38624;53.242;6.974;2024-02-21T04:13:54;33.10;;;9.27;;
52730;SDS011;38624;53.242;6.974;2024-02-21T04:16:20;28.83;;;8.63;;
52730;SDS011;38624;53.242;6.974;2024-02-21T04:18:46;24.57;;;8.80;;
52730;SDS011;38624;53.242;6.974;2024-02-21T04:21:14;26.10;;;8.87;;
52730;SDS011;38624;53.242;6.974;2024-02-21T04:23:41;28.83;;;9.20;;
52730;SDS011;38624;53.242;6.974;2024-02-21T04:26:07;31.87;;;9.83;;
52730;SDS011;38624;53.242;6.974;2024-02-21T04:28:34;30.10;;;9.00;;
52730;SDS011;38624;53.242;6.974;2024-02-21T04:31:00;33.97;;;10.15;;
52730;SDS011;38624;53.242;6.974;2024-02-21T04:33:26;26.83;;;9.27;;
52730;SDS011;38624;53.242;6.974;2024-02-21T04:35:52;25.93;;;9.20;;
52730;SDS011;38624;53.242;6.974;2024-02-21T04:38:20;31.63;;;10.45;;
52730;SDS011;38624;53.242;6.974;2024-02-21T04:40:47;32.75;;;10.88;;
52730;SDS011;38624;53.242;6.974;2024-02-21T04:43:13;31.97;;;11.10;;
52730;SDS011;38624;53.242;6.974;2024-02-21T04:45:39;35.97;;;10.70;;
52730;SDS011;38624;53.242;6.974;2024-02-21T04:48:05;35.30;;;11.13;;
52730;SDS011;38624;53.242;6.974;2024-02-21T04:50:33;32.40;;;11.13;;
52730;SDS011;38624;53.242;6.974;2024-02-21T04:52:59;30.45;;;9.75;;
52730;SDS011;38624;53.242;6.974;2024-02-21T04:55:26;26.53;;;10.23;;
52730;SDS011;38624;53.242;6.974;2024-02-21T04:57:52;27.13;;;9.57;;
52730;SDS011;38624;53.242;6.974;2024-02-21T05:00:18;24.63;;;9.50;;
52730;SDS011;38624;53.242;6.974;2024-02-21T05:02:49;26.63;;;9.48;;
52730;SDS011;38624;53.242;6.974;2024-02-21T05:05:15;31.33;;;9.25;;
52730;SDS011;38624;53.242;6.974;2024-02-21T05:07:42;26.55;;;10.35;;
52730;SDS011;38624;53.242;6.974;2024-02-21T05:10:08;31.60;;;9.70;;
52730;SDS011;38624;53.242;6.974;2024-02-21T05:12:34;26.60;;;8.80;;
52730;SDS011;38624;53.242;6.974;2024-02-21T05:15:01;30.13;;;8.63;;
52730;SDS011;38624;53.242;6.974;2024-02-21T05:19:54;22.85;;;8.77;;
52730;SDS011;38624;53.242;6.974;2024-02-21T05:22:20;26.92;;;9.93;;
52730;SDS011;38624;53.242;6.974;2024-02-21T05:24:46;30.83;;;9.07;;
52730;SDS011;38624;53.242;6.974;2024-02-21T05:27:12;28.53;;;9.60;;
52730;SDS011;38624;53.242;6.974;2024-02-21T05:29:38;26.63;;;9.10;;
52730;SDS011;38624;53.242;6.974;2024-02-21T05:32:04;29.90;;;9.23;;
52730;SDS011;38624;53.242;6.974;2024-02-21T05:34:31;29.58;;;9.73;;
52730;SDS011;38624;53.242;6.974;2024-02-21T05:36:57;26.07;;;8.80;;
52730;SDS011;38624;53.242;6.974;2024-02-21T05:39:25;32.55;;;8.98;;
52730;SDS011;38624;53.242;6.974;2024-02-21T05:41:51;22.02;;;9.20;;
52730;SDS011;38624;53.242;6.974;2024-02-21T05:44:18;28.03;;;8.83;;
52730;SDS011;38624;53.242;6.974;2024-02-21T05:49:10;32.67;;;9.48;;
52730;SDS011;38624;53.242;6.974;2024-02-21T05:51:36;37.00;;;9.80;;
52730;SDS011;38624;53.242;6.974;2024-02-21T05:54:02;28.13;;;9.47;;
52730;SDS011;38624;53.242;6.974;2024-02-21T05:56:28;32.00;;;9.52;;
52730;SDS011;38624;53.242;6.974;2024-02-21T05:58:57;39.25;;;9.85;;
52730;SDS011;38624;53.242;6.974;2024-02-21T06:01:24;28.93;;;8.37;;
52730;SDS011;38624;53.242;6.974;2024-02-21T06:03:50;29.92;;;10.18;;
52730;SDS011;38624;53.242;6.974;2024-02-21T06:06:16;30.07;;;9.23;;
52730;SDS011;38624;53.242;6.974;2024-02-21T06:08:42;27.53;;;9.27;;
52730;SDS011;38624;53.242;6.974;2024-02-21T06:11:08;35.90;;;10.87;;
52730;SDS011;38624;53.242;6.974;2024-02-21T06:13:37;37.83;;;9.30;;
52730;SDS011;38624;53.242;6.974;2024-02-21T06:16:05;31.33;;;9.05;;
52730;SDS011;38624;53.242;6.974;2024-02-21T06:18:31;34.22;;;9.10;;
52730;SDS011;38624;53.242;6.974;2024-02-21T06:20:57;39.07;;;9.90;;
52730;SDS011;38624;53.242;6.974;2024-02-21T06:23:23;39.33;;;9.97;;
52730;SDS011;38624;53.242;6.974;2024-02-21T06:25:49;29.33;;;9.33;;
52730;SDS011;38624;53.242;6.974;2024-02-21T06:28:16;31.55;;;7.60;;
52730;SDS011;38624;53.242;6.974;2024-02-21T06:30:42;26.55;;;8.73;;
52730;SDS011;38624;53.242;6.974;2024-02-21T06:33:08;34.20;;;9.23;;
52730;SDS011;38624;53.242;6.974;2024-02-21T06:35:34;33.70;;;9.73;;
52730;SDS011;38624;53.242;6.974;2024-02-21T06:38:00;28.30;;;9.23;;
52730;SDS011;38624;53.242;6.974;2024-02-21T06:40:26;38.05;;;9.90;;
52730;SDS011;38624;53.242;6.974;2024-02-21T06:42:52;34.08;;;10.30;;
52730;SDS011;38624;53.242;6.974;2024-02-21T06:45:21;30.57;;;10.83;;
52730;SDS011;38624;53.242;6.974;2024-02-21T06:47:47;30.33;;;11.20;;
52730;SDS011;38624;53.242;6.974;2024-02-21T06:50:13;36.63;;;11.37;;
52730;SDS011;38624;53.242;6.974;2024-02-21T06:52:43;34.95;;;11.38;;
52730;SDS011;38624;53.242;6.974;2024-02-21T06:55:09;32.03;;;11.63;;
52730;SDS011;38624;53.242;6.974;2024-02-21T06:57:40;36.08;;;11.27;;
52730;SDS011;38624;53.242;6.974;2024-02-21T07:00:06;38.10;;;12.57;;
52730;SDS011;38624;53.242;6.974;2024-02-21T07:02:33;37.40;;;11.40;;
52730;SDS011;38624;53.242;6.974;2024-02-21T07:04:59;31.38;;;10.73;;
52730;SDS011;38624;53.242;6.974;2024-02-21T07:07:26;34.88;;;10.95;;
52730;SDS011;38624;53.242;6.974;2024-02-21T07:09:52;35.85;;;11.95;;
52730;SDS011;38624;53.242;6.974;2024-02-21T07:12:19;36.38;;;11.23;;
52730;SDS011;38624;53.242;6.974;2024-02-21T07:14:46;37.17;;;11.40;;
52730;SDS011;38624;53.242;6.974;2024-02-21T07:17:12;40.43;;;12.10;;
52730;SDS011;38624;53.242;6.974;2024-02-21T07:19:38;40.70;;;13.10;;
52730;SDS011;38624;53.242;6.974;2024-02-21T07:22:04;45.23;;;14.17;;
52730;SDS011;38624;53.242;6.974;2024-02-21T07:24:30;33.45;;;13.75;;
52730;SDS011;38624;53.242;6.974;2024-02-21T07:26:56;39.83;;;14.52;;
52730;SDS011;38624;53.242;6.974;2024-02-21T07:29:29;38.30;;;16.05;;
52730;SDS011;38624;53.242;6.974;2024-02-21T07:31:55;46.17;;;16.33;;
52730;SDS011;38624;53.242;6.974;2024-02-21T07:34:24;51.58;;;16.38;;
52730;SDS011;38624;53.242;6.974;2024-02-21T07:36:50;37.47;;;16.13;;
52730;SDS011;38624;53.242;6.974;2024-02-21T07:39:16;48.47;;;15.03;;
52730;SDS011;38624;53.242;6.974;2024-02-21T07:41:43;37.05;;;15.38;;
52730;SDS011;38624;53.242;6.974;2024-02-21T07:44:11;44.65;;;15.52;;
52730;SDS011;38624;53.242;6.974;2024-02-21T07:46:37;46.23;;;15.63;;
52730;SDS011;38624;53.242;6.974;2024-02-21T07:49:03;42.33;;;15.17;;
52730;SDS011;38624;53.242;6.974;2024-02-21T07:51:29;41.10;;;15.57;;
52730;SDS011;38624;53.242;6.974;2024-02-21T07:53:55;52.45;;;14.80;;
52730;SDS011;38624;53.242;6.974;2024-02-21T07:56:22;39.97;;;14.37;;
52730;SDS011;38624;53.242;6.974;2024-02-21T07:58:48;54.53;;;14.53;;
52730;SDS011;38624;53.242;6.974;2024-02-21T08:01:20;47.80;;;14.07;;
52730;SDS011;38624;53.242;6.974;2024-02-21T08:03:49;49.80;;;13.10;;
52730;SDS011;38624;53.242;6.974;2024-02-21T08:06:15;50.20;;;13.53;;
52730;SDS011;38624;53.242;6.974;2024-02-21T08:08:42;46.07;;;13.23;;
52730;SDS011;38624;53.242;6.974;2024-02-21T08:11:08;46.70;;;13.85;;
52730;SDS011;38624;53.242;6.974;2024-02-21T08:13:34;39.58;;;12.63;;
52730;SDS011;38624;53.242;6.974;2024-02-21T08:16:00;35.20;;;11.10;;
52730;SDS011;38624;53.242;6.974;2024-02-21T08:18:28;37.22;;;10.27;;
52730;SDS011;38624;53.242;6.974;2024-02-21T08:20:56;34.75;;;10.02;;
52730;SDS011;38624;53.242;6.974;2024-02-21T08:23:23;42.53;;;11.50;;
52730;SDS011;38624;53.242;6.974;2024-02-21T08:25:50;22.35;;;8.80;;
52730;SDS011;38624;53.242;6.974;2024-02-21T08:28:18;29.35;;;9.40;;
52730;SDS011;38624;53.242;6.974;2024-02-21T08:30:44;25.95;;;9.18;;
52730;SDS011;38624;53.242;6.974;2024-02-21T08:33:14;22.83;;;9.13;;
52730;SDS011;38624;53.242;6.974;2024-02-21T08:35:41;31.05;;;9.85;;
52730;SDS011;38624;53.242;6.974;2024-02-21T08:38:10;22.63;;;9.75;;
52730;SDS011;38624;53.242;6.974;2024-02-21T08:40:36;21.93;;;9.20;;
52730;SDS011;38624;53.242;6.974;2024-02-21T08:43:03;27.23;;;9.68;;
52730;SDS011;38624;53.242;6.974;2024-02-21T08:45:29;27.00;;;9.18;;
52730;SDS011;38624;53.242;6.974;2024-02-21T08:47:55;25.13;;;9.20;;
52730;SDS011;38624;53.242;6.974;2024-02-21T08:50:24;22.93;;;8.70;;
52730;SDS011;38624;53.242;6.974;2024-02-21T08:52:50;27.73;;;9.10;;
52730;SDS011;38624;53.242;6.974;2024-02-21T08:55:16;26.43;;;9.50;;
52730;SDS011;38624;53.242;6.974;2024-02-21T08:57:42;27.10;;;9.47;;
52730;SDS011;38624;53.242;6.974;2024-02-21T09:00:13;28.30;;;9.48;;
52730;SDS011;38624;53.242;6.974;2024-02-21T09:02:40;25.17;;;10.40;;
52730;SDS011;38624;53.242;6.974;2024-02-21T09:05:11;24.08;;;10.38;;
52730;SDS011;38624;53.242;6.974;2024-02-21T09:07:37;25.80;;;10.23;;
52730;SDS011;38624;53.242;6.974;2024-02-21T09:10:05;31.42;;;11.02;;
52730;SDS011;38624;53.242;6.974;2024-02-21T09:12:36;25.95;;;11.07;;
52730;SDS011;38624;53.242;6.974;2024-02-21T09:15:05;25.27;;;12.48;;
52730;SDS011;38624;53.242;6.974;2024-02-21T09:17:31;33.65;;;13.35;;
52730;SDS011;38624;53.242;6.974;2024-02-21T09:19:58;28.77;;;13.60;;
52730;SDS011;38624;53.242;6.974;2024-02-21T09:22:28;27.77;;;11.75;;
52730;SDS011;38624;53.242;6.974;2024-02-21T09:24:56;30.60;;;12.55;;
52730;SDS011;38624;53.242;6.974;2024-02-21T09:27:22;32.13;;;14.10;;
52730;SDS011;38624;53.242;6.974;2024-02-21T09:29:51;28.07;;;12.97;;
52730;SDS011;38624;53.242;6.974;2024-02-21T09:32:19;25.35;;;12.63;;
52730;SDS011;38624;53.242;6.974;2024-02-21T09:34:50;24.88;;;13.40;;
52730;SDS011;38624;53.242;6.974;2024-02-21T09:37:17;29.38;;;13.15;;
52730;SDS011;38624;53.242;6.974;2024-02-21T09:39:43;29.33;;;11.43;;
52730;SDS011;38624;53.242;6.974;2024-02-21T09:42:11;28.88;;;13.15;;
52730;SDS011;38624;53.242;6.974;2024-02-21T09:44:37;31.55;;;14.13;;
52730;SDS011;38624;53.242;6.974;2024-02-21T09:47:06;25.90;;;14.32;;
52730;SDS011;38624;53.242;6.974;2024-02-21T09:49:33;30.35;;;14.88;;
52730;SDS011;38624;53.242;6.974;2024-02-21T09:52:06;28.15;;;13.88;;
52730;SDS011;38624;53.242;6.974;2024-02-21T09:54:32;29.98;;;14.75;;
52730;SDS011;38624;53.242;6.974;2024-02-21T09:56:59;28.67;;;14.85;;
52730;SDS011;38624;53.242;6.974;2024-02-21T09:59:27;27.30;;;14.55;;
52730;SDS011;38624;53.242;6.974;2024-02-21T10:01:54;24.70;;;14.32;;
52730;SDS011;38624;53.242;6.974;2024-02-21T10:04:20;25.60;;;14.45;;
52730;SDS011;38624;53.242;6.974;2024-02-21T10:06:47;24.83;;;15.60;;
52730;SDS011;38624;53.242;6.974;2024-02-21T10:09:22;29.58;;;16.33;;
52730;SDS011;38624;53.242;6.974;2024-02-21T10:11:51;26.13;;;15.60;;
52730;SDS011;38624;53.242;6.974;2024-02-21T10:14:17;28.17;;;15.65;;
52730;SDS011;38624;53.242;6.974;2024-02-21T10:16:44;27.45;;;15.95;;
52730;SDS011;38624;53.242;6.974;2024-02-21T10:19:17;32.80;;;16.23;;
52730;SDS011;38624;53.242;6.974;2024-02-21T10:21:43;30.63;;;17.27;;
52730;SDS011;38624;53.242;6.974;2024-02-21T10:24:10;27.50;;;16.20;;
52730;SDS011;38624;53.242;6.974;2024-02-21T10:26:37;30.60;;;18.48;;
52730;SDS011;38624;53.242;6.974;2024-02-21T10:29:03;29.73;;;16.95;;
52730;SDS011;38624;53.242;6.974;2024-02-21T10:31:32;26.85;;;16.73;;
52730;SDS011;38624;53.242;6.974;2024-02-21T10:33:59;31.63;;;15.95;;
52730;SDS011;38624;53.242;6.974;2024-02-21T10:36:28;30.67;;;18.20;;
52730;SDS011;38624;53.242;6.974;2024-02-21T10:38:54;28.85;;;16.92;;
52730;SDS011;38624;53.242;6.974;2024-02-21T10:41:21;29.67;;;16.98;;
52730;SDS011;38624;53.242;6.974;2024-02-21T10:43:51;27.15;;;15.93;;
52730;SDS011;38624;53.242;6.974;2024-02-21T10:46:19;28.20;;;15.35;;
52730;SDS011;38624;53.242;6.974;2024-02-21T10:48:47;29.50;;;16.05;;
52730;SDS011;38624;53.242;6.974;2024-02-21T10:51:14;27.20;;;16.58;;
52730;SDS011;38624;53.242;6.974;2024-02-21T10:53:47;27.15;;;17.40;;
52730;SDS011;38624;53.242;6.974;2024-02-21T10:58:42;29.63;;;15.47;;
52730;SDS011;38624;53.242;6.974;2024-02-21T11:01:08;29.70;;;15.93;;
52730;SDS011;38624;53.242;6.974;2024-02-21T11:03:35;24.90;;;16.08;;
52730;SDS011;38624;53.242;6.974;2024-02-21T11:06:01;26.02;;;15.82;;
52730;SDS011;38624;53.242;6.974;2024-02-21T11:08:30;24.58;;;15.40;;
52730;SDS011;38624;53.242;6.974;2024-02-21T11:10:56;23.67;;;16.13;;
52730;SDS011;38624;53.242;6.974;2024-02-21T11:13:36;28.10;;;16.27;;
52730;SDS011;38624;53.242;6.974;2024-02-21T11:16:09;21.52;;;13.93;;
52730;SDS011;38624;53.242;6.974;2024-02-21T11:18:38;24.73;;;15.80;;
52730;SDS011;38624;53.242;6.974;2024-02-21T11:21:05;25.13;;;15.38;;
52730;SDS011;38624;53.242;6.974;2024-02-21T11:23:31;31.23;;;16.27;;
52730;SDS011;38624;53.242;6.974;2024-02-21T11:26:04;24.90;;;15.07;;
52730;SDS011;38624;53.242;6.974;2024-02-21T11:28:31;22.80;;;14.80;;
52730;SDS011;38624;53.242;6.974;2024-02-21T11:31:11;26.90;;;15.77;;
52730;SDS011;38624;53.242;6.974;2024-02-21T11:33:40;24.05;;;14.18;;
52730;SDS011;38624;53.242;6.974;2024-02-21T11:36:10;20.23;;;13.57;;
52730;SDS011;38624;53.242;6.974;2024-02-21T11:38:36;26.67;;;13.65;;
52730;SDS011;38624;53.242;6.974;2024-02-21T11:41:03;27.93;;;14.33;;
52730;SDS011;38624;53.242;6.974;2024-02-21T11:43:29;22.40;;;14.50;;
52730;SDS011;38624;53.242;6.974;2024-02-21T11:45:59;20.77;;;13.43;;
52730;SDS011;38624;53.242;6.974;2024-02-21T11:48:25;21.38;;;13.38;;
52730;SDS011;38624;53.242;6.974;2024-02-21T11:50:52;25.25;;;13.00;;
52730;SDS011;38624;53.242;6.974;2024-02-21T11:53:20;17.45;;;11.50;;
52730;SDS011;38624;53.242;6.974;2024-02-21T11:55:46;22.15;;;10.93;;
52730;SDS011;38624;53.242;6.974;2024-02-21T11:58:12;19.42;;;11.05;;
52730;SDS011;38624;53.242;6.974;2024-02-21T12:00:38;20.27;;;11.35;;
52730;SDS011;38624;53.242;6.974;2024-02-21T12:05:31;17.10;;;8.80;;
52730;SDS011;38624;53.242;6.974;2024-02-21T12:07:58;19.20;;;9.80;;
52730;SDS011;38624;53.242;6.974;2024-02-21T12:10:25;15.68;;;10.25;;
52730;SDS011;38624;53.242;6.974;2024-02-21T12:12:52;16.58;;;9.35;;
52730;SDS011;38624;53.242;6.974;2024-02-21T12:15:23;16.50;;;9.82;;
52730;SDS011;38624;53.242;6.974;2024-02-21T12:17:52;16.45;;;9.73;;
52730;SDS011;38624;53.242;6.974;2024-02-21T12:20:18;17.08;;;10.73;;
52730;SDS011;38624;53.242;6.974;2024-02-21T12:22:45;15.70;;;10.18;;
52730;SDS011;38624;53.242;6.974;2024-02-21T12:25:18;16.73;;;9.57;;
52730;SDS011;38624;53.242;6.974;2024-02-21T12:27:48;18.52;;;9.68;;
52730;SDS011;38624;53.242;6.974;2024-02-21T12:30:15;17.58;;;9.07;;
52730;SDS011;38624;53.242;6.974;2024-02-21T12:32:41;17.73;;;9.80;;
52730;SDS011;38624;53.242;6.974;2024-02-21T12:35:07;16.10;;;9.20;;
52730;SDS011;38624;53.242;6.974;2024-02-21T12:37:33;17.63;;;8.98;;
52730;SDS011;38624;53.242;6.974;2024-02-21T12:39:59;16.87;;;9.40;;
52730;SDS011;38624;53.242;6.974;2024-02-21T12:42:26;18.55;;;9.20;;
52730;SDS011;38624;53.242;6.974;2024-02-21T12:44:52;12.73;;;7.95;;
52730;SDS011;38624;53.242;6.974;2024-02-21T12:47:18;13.65;;;8.27;;
52730;SDS011;38624;53.242;6.974;2024-02-21T12:49:48;16.30;;;8.70;;
52730;SDS011;38624;53.242;6.974;2024-02-21T12:52:14;15.50;;;8.15;;
52730;SDS011;38624;53.242;6.974;2024-02-21T12:54:41;17.65;;;8.90;;
52730;SDS011;38624;53.242;6.974;2024-02-21T12:57:08;17.38;;;9.18;;
52730;SDS011;38624;53.242;6.974;2024-02-21T12:59:34;15.82;;;9.38;;
52730;SDS011;38624;53.242;6.974;2024-02-21T13:02:00;13.27;;;8.90;;
52730;SDS011;38624;53.242;6.974;2024-02-21T13:04:26;14.67;;;8.90;;
52730;SDS011;38624;53.242;6.974;2024-02-21T13:06:52;15.80;;;8.53;;
52730;SDS011;38624;53.242;6.974;2024-02-21T13:09:21;13.63;;;7.72;;
52730;SDS011;38624;53.242;6.974;2024-02-21T13:11:47;12.97;;;7.70;;
52730;SDS011;38624;53.242;6.974;2024-02-21T13:14:13;12.27;;;8.27;;
52730;SDS011;38624;53.242;6.974;2024-02-21T13:16:39;10.20;;;7.60;;
52730;SDS011;38624;53.242;6.974;2024-02-21T13:19:06;12.45;;;8.02;;
52730;SDS011;38624;53.242;6.974;2024-02-21T13:21:33;10.02;;;7.40;;
52730;SDS011;38624;53.242;6.974;2024-02-21T13:23:59;16.92;;;9.05;;
52730;SDS011;38624;53.242;6.974;2024-02-21T13:26:25;17.63;;;9.13;;
52730;SDS011;38624;53.242;6.974;2024-02-21T13:28:52;12.00;;;7.43;;
52730;SDS011;38624;53.242;6.974;2024-02-21T13:31:18;9.35;;;6.28;;
52730;SDS011;38624;53.242;6.974;2024-02-21T13:33:47;11.90;;;7.22;;
52730;SDS011;38624;53.242;6.974;2024-02-21T13:36:13;12.38;;;6.78;;
52730;SDS011;38624;53.242;6.974;2024-02-21T13:38:39;11.10;;;6.73;;
52730;SDS011;38624;53.242;6.974;2024-02-21T13:41:05;10.63;;;6.47;;
52730;SDS011;38624;53.242;6.974;2024-02-21T13:43:32;9.75;;;6.03;;
52730;SDS011;38624;53.242;6.974;2024-02-21T13:46:01;10.48;;;6.25;;
52730;SDS011;38624;53.242;6.974;2024-02-21T13:48:30;12.07;;;6.57;;
52730;SDS011;38624;53.242;6.974;2024-02-21T13:50:56;9.45;;;6.15;;
52730;SDS011;38624;53.242;6.974;2024-02-21T13:53:22;10.73;;;6.20;;
52730;SDS011;38624;53.242;6.974;2024-02-21T13:55:51;8.98;;;5.65;;
52730;SDS011;38624;53.242;6.974;2024-02-21T13:58:17;9.23;;;6.00;;
52730;SDS011;38624;53.242;6.974;2024-02-21T14:00:43;9.57;;;5.45;;
52730;SDS011;38624;53.242;6.974;2024-02-21T14:03:09;8.75;;;4.80;;
52730;SDS011;38624;53.242;6.974;2024-02-21T14:05:36;8.18;;;5.10;;
52730;SDS011;38624;53.242;6.974;2024-02-21T14:08:02;7.57;;;4.88;;
52730;SDS011;38624;53.242;6.974;2024-02-21T14:10:28;7.13;;;4.90;;
52730;SDS011;38624;53.242;6.974;2024-02-21T14:12:54;7.20;;;4.60;;
52730;SDS011;38624;53.242;6.974;2024-02-21T14:15:22;6.63;;;4.78;;
52730;SDS011;38624;53.242;6.974;2024-02-21T14:17:48;8.45;;;4.45;;
52730;SDS011;38624;53.242;6.974;2024-02-21T14:20:14;8.70;;;4.60;;
52730;SDS011;38624;53.242;6.974;2024-02-21T14:22:40;8.35;;;4.63;;
52730;SDS011;38624;53.242;6.974;2024-02-21T14:25:09;9.73;;;5.30;;
52730;SDS011;38624;53.242;6.974;2024-02-21T14:27:35;6.60;;;4.45;;
52730;SDS011;38624;53.242;6.974;2024-02-21T14:30:02;9.15;;;5.00;;
52730;SDS011;38624;53.242;6.974;2024-02-21T14:32:28;7.80;;;5.13;;
52730;SDS011;38624;53.242;6.974;2024-02-21T14:34:54;9.13;;;4.90;;
52730;SDS011;38624;53.242;6.974;2024-02-21T14:37:20;7.70;;;5.03;;
52730;SDS011;38624;53.242;6.974;2024-02-21T14:39:46;12.88;;;6.05;;
52730;SDS011;38624;53.242;6.974;2024-02-21T14:42:13;8.13;;;5.10;;